Horn Lake, Mississippi
Current Conditions -  °F | °C
As of 5:54 PM on Saturday 20 Dec 2014 (Local Time) from KMEM Reporting Station
Broken Clouds Broken Clouds  
Wind Chill: 44°   Ceiling: 5000
Heat Index: 44°   Visibility: 10mi
Dew Point: 34°   Wind: 3mph
Humidity: 68%   Direction: 350°N
Pressure: 30.23"   Gusts: NA
Location:  34.96°N, 90.05°W
Report Text: KMEM 202354Z 35003KT 10SM BKN050 07/01 A3023 RMK AO2 SLP239 T00670011 10100 20067 53004 $
Loading
Personal Weather Stations






























Interactive Weather Map New forecast layout! Learn more

10-Day Weather Forecast

Advertisements
Track Severe Weather on mobile